sensor_id;sensor_type;location;lat;lon;timestamp;pressure;altitude;pressure_sealevel;temperature;humidity
61740;BME280;47645;45.288;12.038;2024-03-08T00:01:14;1016.5664084334068;;;8.4189453125;100
61740;BME280;47645;45.288;12.038;2024-03-08T00:11:15;1016.6588503496578;;;8.34765625;100
61740;BME280;47645;45.288;12.038;2024-03-08T00:21:16;1016.6529446976722;;;8.469921875;100
61740;BME280;47645;45.288;12.038;2024-03-08T00:31:17;1016.595151092864;;;8.3935546875;100
61740;BME280;47645;45.288;12.038;2024-03-08T00:41:17;1016.4861937529319;;;8.235546875;100
61740;BME280;47645;45.288;12.038;2024-03-08T00:51:17;1016.5436411461768;;;8.23046875;100
61740;BME280;47645;45.288;12.038;2024-03-08T01:01:19;1016.5140470243449;;;8.2203125;100
61740;BME280;47645;45.288;12.038;2024-03-08T01:11:19;1016.5105653643723;;;8.2099609375;100
61740;BME280;47645;45.288;12.038;2024-03-08T01:21:19;1016.2691857579755;;;8.2203125;100
61740;BME280;47645;45.288;12.038;2024-03-08T01:31:20;1016.2172252643484;;;8.11328125;100
61740;BME280;47645;45.288;12.038;2024-03-08T01:41:21;1016.1188805253229;;;8.2203125;100
61740;BME280;47645;45.288;12.038;2024-03-08T01:51:21;1016.1034185334888;;;8.34765625;100
61740;BME280;47645;45.288;12.038;2024-03-08T02:01:22;1015.8419922440605;;;8.14375;100
61740;BME280;47645;45.288;12.038;2024-03-08T02:11:23;1015.785833322767;;;8.011328125;100
61740;BME280;47645;45.288;12.038;2024-03-08T02:21:24;1015.7162253233012;;;8.011328125;100
61740;BME280;47645;45.288;12.038;2024-03-08T02:31:24;1015.6955659723625;;;7.8888671875;100
61740;BME280;47645;45.288;12.038;2024-03-08T02:41:24;1015.727514864047;;;7.8837890625;100
61740;BME280;47645;45.288;12.038;2024-03-08T02:51:28;1015.7951599181229;;;7.837890625;100
61740;BME280;47645;45.288;12.038;2024-03-08T03:01:26;1015.711652155593;;;7.837890625;100
61740;BME280;47645;45.288;12.038;2024-03-08T03:11:27;1015.7245901352512;;;7.8939453125;100
61740;BME280;47645;45.288;12.038;2024-03-08T03:21:28;1015.7886297398056;;;7.7666015625;100
61740;BME280;47645;45.288;12.038;2024-03-08T03:31:28;1015.7410437027755;;;7.787109375;100
61740;BME280;47645;45.288;12.038;2024-03-08T03:41:28;1015.7420212525586;;;7.715625;100
61740;BME280;47645;45.288;12.038;2024-03-08T03:51:29;1015.8533078963967;;;7.89921875;100
61740;BME280;47645;45.288;12.038;2024-03-08T04:01:30;1015.9063956282922;;;8.1640625;100
61740;BME280;47645;45.288;12.038;2024-03-08T04:11:31;1015.7946023590154;;;8.1998046875;100
61740;BME280;47645;45.288;12.038;2024-03-08T04:21:31;1015.7777385469573;;;8.2099609375;100
61740;BME280;47645;45.288;12.038;2024-03-08T04:31:32;1015.8109718637234;;;8.046875;100
61740;BME280;47645;45.288;12.038;2024-03-08T04:41:34;1015.7267103831042;;;7.9908203125;100
61740;BME280;47645;45.288;12.038;2024-03-08T04:51:34;1015.7630249854742;;;7.9501953125;100
61740;BME280;47645;45.288;12.038;2024-03-08T05:01:34;1015.784271808398;;;8.051953125;100
61740;BME280;47645;45.288;12.038;2024-03-08T05:11:34;1015.8647763159894;;;7.9806640625;100
61740;BME280;47645;45.288;12.038;2024-03-08T05:21:35;1015.8754472757457;;;8.11328125;100
61740;BME280;47645;45.288;12.038;2024-03-08T05:31:42;1015.9196025139436;;;8.1029296875;100
61740;BME280;47645;45.288;12.038;2024-03-08T05:41:36;1015.9501126707639;;;8.0826171875;100
61740;BME280;47645;45.288;12.038;2024-03-08T05:51:38;1016.116637952413;;;8.051953125;100
61740;BME280;47645;45.288;12.038;2024-03-08T06:01:38;1016.1867050084536;;;7.9806640625;100
61740;BME280;47645;45.288;12.038;2024-03-08T06:11:38;1016.289935220449;;;7.6291015625;100
61740;BME280;47645;45.288;12.038;2024-03-08T06:21:39;1016.4898864585189;;;7.506640625;100
61740;BME280;47645;45.288;12.038;2024-03-08T06:31:39;1016.5888643514356;;;7.399609375;100
61740;BME280;47645;45.288;12.038;2024-03-08T06:41:40;1016.7434088379288;;;7.292578125;100
61740;BME280;47645;45.288;12.038;2024-03-08T06:51:41;1016.763136344593;;;7.078515625;100
61740;BME280;47645;45.288;12.038;2024-03-08T07:01:41;1016.7755042600016;;;6.95625;100
61740;BME280;47645;45.288;12.038;2024-03-08T07:11:42;1016.8145045546277;;;6.7931640625;100
61740;BME280;47645;45.288;12.038;2024-03-08T07:21:43;1016.8620201542004;;;6.726953125;100
61740;BME280;47645;45.288;12.038;2024-03-08T07:31:51;1016.856861904921;;;6.6658203125;100
61740;BME280;47645;45.288;12.038;2024-03-08T07:41:44;1016.9398659442242;;;6.5892578125;100
61740;BME280;47645;45.288;12.038;2024-03-08T07:51:45;1016.9188875645609;;;6.71171875;100
61740;BME280;47645;45.288;12.038;2024-03-08T08:01:47;1016.9541170483458;;;6.8900390625;100
61740;BME280;47645;45.288;12.038;2024-03-08T08:11:46;1017.1002933556953;;;7.0021484375;100
61740;BME280;47645;45.288;12.038;2024-03-08T08:21:46;1017.0466227258419;;;7.246875;100
61740;BME280;47645;45.288;12.038;2024-03-08T08:31:47;1017.1446231782803;;;7.4099609375;100
61740;BME280;47645;45.288;12.038;2024-03-08T08:41:48;1017.1833701937711;;;7.25703125;100
61740;BME280;47645;45.288;12.038;2024-03-08T08:51:49;1017.2445147843694;;;7.369140625;100
61740;BME280;47645;45.288;12.038;2024-03-08T09:01:51;1017.2743211756328;;;7.2365234375;100
61740;BME280;47645;45.288;12.038;2024-03-08T09:11:50;1017.2404690269786;;;7.37421875;100
61740;BME280;47645;45.288;12.038;2024-03-08T09:21:52;1017.0514462573057;;;7.6443359375;100
61740;BME280;47645;45.288;12.038;2024-03-08T09:31:52;1017.0509795277451;;;8.021484375;100
61740;BME280;47645;45.288;12.038;2024-03-08T09:41:51;1017.0936053729555;;;8.046875;100
61740;BME280;47645;45.288;12.038;2024-03-08T09:51:52;1016.9443762537925;;;8.694140625;100
61740;BME280;47645;45.288;12.038;2024-03-08T10:01:53;1017.0070211262941;;;9.1783203125;100
61740;BME280;47645;45.288;12.038;2024-03-08T10:11:55;1016.9085362729583;;;9.550390625;100
61740;BME280;47645;45.288;12.038;2024-03-08T10:21:54;1016.8123656251213;;;10.08046875;100
61740;BME280;47645;45.288;12.038;2024-03-08T10:31:56;1016.896024181517;;;10.4322265625;100
61740;BME280;47645;45.288;12.038;2024-03-08T10:41:58;1017.0979650364307;;;10.6919921875;100
61740;BME280;47645;45.288;12.038;2024-03-08T10:51:57;1017.0557335614335;;;10.5443359375;100
61740;BME280;47645;45.288;12.038;2024-03-08T11:01:57;1017.0969218220981;;;10.2181640625;100
61740;BME280;47645;45.288;12.038;2024-03-08T11:12:36;1017.0441133416062;;;9.851171875;100
61740;BME280;47645;45.288;12.038;2024-03-08T11:22:00;1016.999662644155;;;9.7033203125;100
61740;BME280;47645;45.288;12.038;2024-03-08T11:32:04;1017.0159123286098;;;9.667578125;100
61740;BME280;47645;45.288;12.038;2024-03-08T11:42:00;1016.9543380564827;;;9.657421875;100
61740;BME280;47645;45.288;12.038;2024-03-08T11:52:01;1016.9379689488846;;;9.2650390625;100
61740;BME280;47645;45.288;12.038;2024-03-08T12:02:03;1016.8148525387107;;;8.77578125;100
61740;BME280;47645;45.288;12.038;2024-03-08T12:12:06;1016.8027854618406;;;8.7349609375;100
61740;BME280;47645;45.288;12.038;2024-03-08T12:22:08;1016.6328856744041;;;8.673828125;100
61740;BME280;47645;45.288;12.038;2024-03-08T12:32:05;1016.4978133247926;;;8.9287109375;100
61740;BME280;47645;45.288;12.038;2024-03-08T12:42:05;1016.4712290984888;;;8.918359375;100
61740;BME280;47645;45.288;12.038;2024-03-08T12:52:09;1016.2487663097825;;;8.908203125;100
61740;BME280;47645;45.288;12.038;2024-03-08T13:02:11;1016.2038735930004;;;9.1833984375;100
61740;BME280;47645;45.288;12.038;2024-03-08T13:12:09;1016.2115582489255;;;8.918359375;100
61740;BME280;47645;45.288;12.038;2024-03-08T13:22:08;1016.2119951099287;;;8.69921875;100
61740;BME280;47645;45.288;12.038;2024-03-08T13:32:11;1016.1274217033675;;;8.9439453125;100
61740;BME280;47645;45.288;12.038;2024-03-08T13:42:13;1016.0726888905473;;;8.7552734375;100
61740;BME280;47645;45.288;12.038;2024-03-08T13:52:10;1015.9959426017471;;;8.77578125;100
61740;BME280;47645;45.288;12.038;2024-03-08T14:02:14;1015.93040756294;;;9.336328125;100
61740;BME280;47645;45.288;12.038;2024-03-08T14:12:11;1015.8159311020496;;;9.326171875;100
61740;BME280;47645;45.288;12.038;2024-03-08T14:22:14;1015.6970636782015;;;9.1375;100
61740;BME280;47645;45.288;12.038;2024-03-08T14:32:14;1015.5178287210024;;;8.9796875;100
61740;BME280;47645;45.288;12.038;2024-03-08T14:42:15;1015.4447135458464;;;9.0;100
61740;BME280;47645;45.288;12.038;2024-03-08T14:52:27;1015.3782105666672;;;9.336328125;100
61740;BME280;47645;45.288;12.038;2024-03-08T15:02:15;1015.2626801674464;;;9.2548828125;100
61740;BME280;47645;45.288;12.038;2024-03-08T15:12:16;1015.2390745771015;;;9.4025390625;100
61740;BME280;47645;45.288;12.038;2024-03-08T15:22:18;1015.1721886471704;;;8.898046875;100
61740;BME280;47645;45.288;12.038;2024-03-08T15:32:21;1015.0203504714134;;;8.760546875;100
61740;BME280;47645;45.288;12.038;2024-03-08T15:42:18;1014.9634688147472;;;9.005078125;100
61740;BME280;47645;45.288;12.038;2024-03-08T15:52:19;1014.9436057815004;;;9.0408203125;100
61740;BME280;47645;45.288;12.038;2024-03-08T16:02:19;1014.9981877211601;;;8.8166015625;100
61740;BME280;47645;45.288;12.038;2024-03-08T16:12:20;1015.1200624022782;;;8.770703125;100
61740;BME280;47645;45.288;12.038;2024-03-08T16:22:21;1015.2342715153469;;;8.58203125;100
61740;BME280;47645;45.288;12.038;2024-03-08T16:32:22;1015.1719828226001;;;8.266015625;100
61740;BME280;47645;45.288;12.038;2024-03-08T16:42:22;1015.1109753052114;;;8.2814453125;100
61740;BME280;47645;45.288;12.038;2024-03-08T16:52:23;1015.077368486795;;;8.2609375;100
61740;BME280;47645;45.288;12.038;2024-03-08T17:02:24;1014.9718582473183;;;8.255859375;100
61740;BME280;47645;45.288;12.038;2024-03-08T17:12:25;1014.9216128804384;;;8.0623046875;100
61740;BME280;47645;45.288;12.038;2024-03-08T17:22:25;1014.8301144111815;;;7.7818359375;100
61740;BME280;47645;45.288;12.038;2024-03-08T17:32:26;1014.7698628286032;;;7.837890625;100
61740;BME280;47645;45.288;12.038;2024-03-08T17:42:28;1014.6955949624178;;;7.8482421875;100
61740;BME280;47645;45.288;12.038;2024-03-08T17:52:27;1014.7863512895184;;;7.6544921875;100
61740;BME280;47645;45.288;12.038;2024-03-08T18:02:28;1014.7548709532451;;;7.613671875;100
61740;BME280;47645;45.288;12.038;2024-03-08T18:12:30;1014.6984899264073;;;7.5677734375;100
61740;BME280;47645;45.288;12.038;2024-03-08T18:22:29;1014.783927154387;;;7.583203125;100
61740;BME280;47645;45.288;12.038;2024-03-08T18:32:30;1014.574166973187;;;7.6748046875;100
61740;BME280;47645;45.288;12.038;2024-03-08T18:42:31;1014.655021734146;;;7.7666015625;100
61740;BME280;47645;45.288;12.038;2024-03-08T18:52:32;1014.8084117747177;;;7.6595703125;100
61740;BME280;47645;45.288;12.038;2024-03-08T19:02:33;1014.548371417358;;;7.7615234375;100
61740;BME280;47645;45.288;12.038;2024-03-08T19:12:34;1014.4711688413101;;;7.8583984375;100
61740;BME280;47645;45.288;12.038;2024-03-08T19:22:33;1014.4277419484226;;;7.8328125;100
61740;BME280;47645;45.288;12.038;2024-03-08T19:32:34;1014.3813205461088;;;7.7818359375;100
61740;BME280;47645;45.288;12.038;2024-03-08T19:42:36;1014.4368595746439;;;7.8125;100
61740;BME280;47645;45.288;12.038;2024-03-08T19:52:35;1014.34047915191;;;7.593359375;100
61740;BME280;47645;45.288;12.038;2024-03-08T20:02:36;1014.2613693387285;;;7.593359375;100
61740;BME280;47645;45.288;12.038;2024-03-08T20:12:37;1014.2876564197206;;;7.613671875;100
61740;BME280;47645;45.288;12.038;2024-03-08T20:22:37;1014.3066867623775;;;7.5576171875;100
61740;BME280;47645;45.288;12.038;2024-03-08T20:32:37;1014.3924782979567;;;7.80234375;100
61740;BME280;47645;45.288;12.038;2024-03-08T20:42:38;1014.3818582187929;;;7.7921875;100
61740;BME280;47645;45.288;12.038;2024-03-08T20:52:40;1014.3784423278374;;;7.7666015625;100
61740;BME280;47645;45.288;12.038;2024-03-08T21:02:44;1014.1952613271827;;;7.7564453125;100
61740;BME280;47645;45.288;12.038;2024-03-08T21:12:42;1014.1860677734109;;;7.807421875;100
61740;BME280;47645;45.288;12.038;2024-03-08T21:22:41;1014.0344137283906;;;7.6697265625;100
61740;BME280;47645;45.288;12.038;2024-03-08T21:32:43;1014.0059920336095;;;7.60859375;100
61740;BME280;47645;45.288;12.038;2024-03-08T21:42:42;1013.9330953857974;;;7.389453125;100
61740;BME280;47645;45.288;12.038;2024-03-08T21:52:43;1013.85343815436;;;7.282421875;100
61740;BME280;47645;45.288;12.038;2024-03-08T22:02:46;1013.9104132232122;;;7.18046875;100
61740;BME280;47645;45.288;12.038;2024-03-08T22:12:44;1013.9196565889564;;;7.1958984375;100
61740;BME280;47645;45.288;12.038;2024-03-08T22:22:45;1013.8013666934319;;;7.3435546875;100
61740;BME280;47645;45.288;12.038;2024-03-08T22:32:45;1013.6754372722422;;;7.2162109375;100
61740;BME280;47645;45.288;12.038;2024-03-08T22:42:46;1013.5688296994273;;;7.2212890625;100
61740;BME280;47645;45.288;12.038;2024-03-08T22:52:46;1013.4588978208743;;;7.2671875;100
61740;BME280;47645;45.288;12.038;2024-03-08T23:02:47;1013.389319377392;;;7.2875;100
61740;BME280;47645;45.288;12.038;2024-03-08T23:12:47;1013.361583640363;;;7.3486328125;100
61740;BME280;47645;45.288;12.038;2024-03-08T23:22:50;1013.2175244036544;;;7.1091796875;100
61740;BME280;47645;45.288;12.038;2024-03-08T23:32:49;1013.0577617944634;;;7.246875;100
61740;BME280;47645;45.288;12.038;2024-03-08T23:42:51;1012.944136411004;;;7.185546875;100
61740;BME280;47645;45.288;12.038;2024-03-08T23:52:50;1012.8842509367252;;;7.0888671875;100
